Terminal Aerodrome Forecast
Issued by NWS

Home | Current Version | Previous Version | Text Only | Print | Product List | Glossary On
Versions: 1 2 3 4 5 6 7 8 9 10 11 12 13 14 15 16 17 18 19 20 21 22 23 24 25 26 27 28 29 30 31
668
FTUS43 KLOT 180324 AAA
TAFMDW
TAF AMD
KMDW 180324Z 1803/1906 27012G18KT P6SM OVC015
      TEMPO 1804/1806 SCT015
     FM180600 27006KT P6SM SKC
     FM181000 00000KT P6SM BCFG SKC
     FM181400 17010KT P6SM SCT250
     FM181800 18015G25KT P6SM SCT250
     FM190000 18015G25KT P6SM BKN250 WS020/20060KT=

USA.gov is the U.S. government's official web portal to all federal, state and local government web resources and services.